Decoded Metar for KFNL (FT COLLINS/LOVEL in CO, USA) (IATA:FNL) | Meteo·Mobile Aviation Weather
aviador You're here:

KFNL Decoded Metar

FT COLLINS/LOVEL in CO, USA
Report Time2019-02-20 19:56:00
UTC Time2019-02-20 20:10:57
Flight Rules vfr VFR
WindVRB at 05 kt
Visibility9999 m
Phenomena:N/A
Clouds:N/A
Expected CloudBase > 7,600 ft AGL from Temp-Dew spread
CeilingNone
Temp00°C (ISA -5)
Dew Point-19°C (23% RH)
AAT-5.3°C
QNH1001 hPa
Density Alt4,846 ft
Elevation5,016 ft
Report Wrong Elevation
Raw Report
KFNL 201956Z AUTO VRB05KT 10SM CLR 00/M19 A2956 RMK AO2 SLP043
T00001194 FZRANO=

Extra information for KFNL:More info

Metar Taf Metar & Taf Last 4 Metars F.Rules Stats Wind Profile Meteogram Temp Stats Airport Information Weather charts Add Link Nearby VenuesMetar ALERT Operation Metar Decoded Social comments

AIRNAV info for KFNL